Time;durP1;ratioP1;P1;durP2;ratioP2;P2;SDS_P1;SDS_P2;PMS_P1;PMS_P2;Temp;Humidity;BMP_temperature;BMP_pressure;BME280_temperature;BME280_humidity;BME280_pressure;Samples;Min_cycle;Max_cycle;Signal;HPM_P1;HPM_P2
2022/12/14 00:01:39;;;;;;;20.13;12.80;;;;;;;;;;5097908;28;20184;-69
2022/12/14 00:04:05;;;;;;;22.87;14.13;;;;;;;;;;5097456;28;20229;-69
2022/12/14 00:06:31;;;;;;;22.40;13.63;;;;;;;;;;5097138;28;20250;-69
2022/12/14 00:08:58;;;;;;;30.37;13.03;;;;;;;;;;5079216;28;20179;-69
2022/12/14 00:11:24;;;;;;;18.00;11.17;;;;;;;;;;5081956;28;20411;-69
2022/12/14 00:13:52;;;;;;;19.70;13.13;;;;;;;;;;5097908;28;20499;-69
2022/12/14 00:16:18;;;;;;;21.53;13.10;;;;;;;;;;5097799;28;20176;-69
2022/12/14 00:18:48;;;;;;;20.63;14.27;;;;;;;;;;5097671;28;20422;-70
2022/12/14 00:21:14;;;;;;;21.30;14.47;;;;;;;;;;5079269;28;20411;-69
2022/12/14 00:23:40;;;;;;;21.57;13.70;;;;;;;;;;5096887;28;20462;-69
2022/12/14 00:26:20;;;;;;;19.97;14.73;;;;;;;;;;5078994;28;20427;-68
2022/12/14 00:28:46;;;;;;;25.43;13.17;;;;;;;;;;5078705;28;20433;-69
2022/12/14 00:31:12;;;;;;;22.23;14.40;;;;;;;;;;5079068;28;20835;-69
2022/12/14 00:33:39;;;;;;;24.10;14.70;;;;;;;;;;5079882;28;20455;-69
2022/12/14 00:36:05;;;;;;;20.57;12.93;;;;;;;;;;5102327;28;20415;-69
2022/12/14 00:38:32;;;;;;;21.27;13.83;;;;;;;;;;5106739;28;20411;-69
2022/12/14 00:40:58;;;;;;;23.43;13.80;;;;;;;;;;5095455;28;20481;-69
2022/12/14 00:43:24;;;;;;;22.13;13.73;;;;;;;;;;5109143;28;20502;-69
2022/12/14 00:45:50;;;;;;;20.57;13.60;;;;;;;;;;5105219;28;20419;-69
2022/12/14 00:48:17;;;;;;;23.17;12.70;;;;;;;;;;5103082;28;20416;-69
2022/12/14 00:50:44;;;;;;;20.17;12.43;;;;;;;;;;5099110;28;20218;-69
2022/12/14 00:53:10;;;;;;;22.70;13.93;;;;;;;;;;5097476;28;20429;-69
2022/12/14 00:55:38;;;;;;;23.77;13.30;;;;;;;;;;5079309;28;20769;-69
2022/12/14 00:58:04;;;;;;;18.27;12.17;;;;;;;;;;5079538;28;20184;-69
2022/12/14 01:00:30;;;;;;;18.53;12.27;;;;;;;;;;5084063;28;20419;-69
2022/12/14 01:02:56;;;;;;;22.97;12.47;;;;;;;;;;5100137;28;20215;-69
2022/12/14 01:05:21;;;;;;;18.93;11.77;;;;;;;;;;5083784;28;20185;-69
2022/12/14 01:07:47;;;;;;;20.13;11.80;;;;;;;;;;5110921;28;20177;-70
2022/12/14 01:10:13;;;;;;;20.93;13.53;;;;;;;;;;5099458;28;20181;-69
2022/12/14 01:12:39;;;;;;;21.00;12.77;;;;;;;;;;5099184;28;20200;-70
2022/12/14 01:15:05;;;;;;;19.80;13.87;;;;;;;;;;5116979;28;20222;-69
2022/12/14 01:17:31;;;;;;;23.80;12.27;;;;;;;;;;5099412;28;20169;-69
2022/12/14 01:19:57;;;;;;;18.97;13.07;;;;;;;;;;5097499;28;20454;-69
2022/12/14 01:22:23;;;;;;;20.13;12.23;;;;;;;;;;5115274;28;20208;-69
2022/12/14 01:24:49;;;;;;;19.77;12.63;;;;;;;;;;5085244;28;20205;-69
2022/12/14 01:27:15;;;;;;;19.00;12.17;;;;;;;;;;5097747;28;20200;-69
2022/12/14 01:29:41;;;;;;;18.47;12.70;;;;;;;;;;5097622;28;20208;-69
2022/12/14 01:32:07;;;;;;;20.50;12.80;;;;;;;;;;5097067;28;20222;-69
2022/12/14 01:34:33;;;;;;;18.10;12.80;;;;;;;;;;5097715;28;20185;-69
2022/12/14 01:36:59;;;;;;;11.87;7.47;;;;;;;;;;5097672;28;20183;-69
2022/12/14 01:39:25;;;;;;;17.90;11.53;;;;;;;;;;5078776;28;20185;-69
2022/12/14 01:41:51;;;;;;;20.63;11.70;;;;;;;;;;5096663;28;20179;-69
2022/12/14 01:44:17;;;;;;;17.93;11.63;;;;;;;;;;5096355;28;20204;-69
2022/12/14 01:46:52;;;;;;;16.17;10.63;;;;;;;;;;5077733;28;20417;-69
2022/12/14 01:49:34;;;;;;;17.27;11.37;;;;;;;;;;5099488;28;20175;-69
2022/12/14 01:52:03;;;;;;;19.13;12.10;;;;;;;;;;5096875;28;20445;-68
2022/12/14 01:54:32;;;;;;;25.07;13.57;;;;;;;;;;5078257;28;20462;-67
2022/12/14 01:56:58;;;;;;;18.97;11.63;;;;;;;;;;5096609;28;20838;-68
2022/12/14 01:59:27;;;;;;;18.13;12.77;;;;;;;;;;5078445;28;20415;-69
2022/12/14 02:01:54;;;;;;;21.70;12.47;;;;;;;;;;5077810;28;20470;-69
2022/12/14 02:04:21;;;;;;;22.00;12.30;;;;;;;;;;5077910;28;20464;-68
2022/12/14 02:06:48;;;;;;;19.73;12.80;;;;;;;;;;5096353;28;20418;-70
2022/12/14 02:09:16;;;;;;;18.67;12.00;;;;;;;;;;5077334;28;20441;-69
2022/12/14 02:12:01;;;;;;;21.03;12.87;;;;;;;;;;5095890;28;20412;-69
2022/12/14 02:14:27;;;;;;;18.50;12.30;;;;;;;;;;5095447;28;20425;-68
2022/12/14 02:16:55;;;;;;;19.80;11.80;;;;;;;;;;5077787;28;20413;-69
2022/12/14 02:19:21;;;;;;;18.43;9.23;;;;;;;;;;5077604;28;20412;-69
2022/12/14 02:22:06;;;;;;;21.23;12.83;;;;;;;;;;5096083;28;20876;-69
2022/12/14 02:24:44;;;;;;;20.33;13.53;;;;;;;;;;5077603;28;20701;-69
2022/12/14 02:27:09;;;;;;;20.80;12.27;;;;;;;;;;5095427;28;20473;-69
2022/12/14 02:29:46;;;;;;;19.00;10.37;;;;;;;;;;5095329;28;20452;-69
2022/12/14 02:32:15;;;;;;;20.53;10.47;;;;;;;;;;5095419;28;20176;-69
2022/12/14 02:34:47;;;;;;;17.83;9.73;;;;;;;;;;5095640;28;20442;-68
2022/12/14 02:37:20;;;;;;;19.73;12.13;;;;;;;;;;5098081;28;20409;-69
2022/12/14 02:40:01;;;;;;;18.60;12.47;;;;;;;;;;5077646;28;20457;-68
2022/12/14 02:42:59;;;;;;;18.53;11.70;;;;;;;;;;5095237;28;20650;-69
2022/12/14 02:45:30;;;;;;;20.10;12.97;;;;;;;;;;5061290;28;20833;-69
2022/12/14 02:48:15;;;;;;;19.40;12.20;;;;;;;;;;5094952;28;20542;-69
2022/12/14 02:50:47;;;;;;;17.40;11.63;;;;;;;;;;5095192;28;20434;-69
2022/12/14 02:53:22;;;;;;;19.47;11.27;;;;;;;;;;5076305;28;20429;-69
2022/12/14 02:55:49;;;;;;;20.00;12.00;;;;;;;;;;5076348;28;20798;-69
2022/12/14 02:58:15;;;;;;;18.20;11.50;;;;;;;;;;5075723;28;20416;-69
2022/12/14 03:00:41;;;;;;;18.07;11.47;;;;;;;;;;5094890;28;20412;-69
2022/12/14 03:03:08;;;;;;;20.00;12.73;;;;;;;;;;5075965;28;20683;-69
2022/12/14 03:05:34;;;;;;;17.53;11.03;;;;;;;;;;5076288;28;20415;-69
2022/12/14 03:08:05;;;;;;;17.63;10.00;;;;;;;;;;5094200;28;20410;-69
2022/12/14 03:10:47;;;;;;;15.23;10.70;;;;;;;;;;5076079;28;20437;-69
2022/12/14 03:13:16;;;;;;;16.57;10.83;;;;;;;;;;5076520;28;20433;-70
2022/12/14 03:15:44;;;;;;;17.00;10.90;;;;;;;;;;5093841;28;20415;-68
2022/12/14 03:18:12;;;;;;;14.97;9.93;;;;;;;;;;5075987;28;20426;-69
2022/12/14 03:20:39;;;;;;;17.10;10.80;;;;;;;;;;5075847;28;20428;-70
2022/12/14 03:23:12;;;;;;;14.60;10.50;;;;;;;;;;5076193;28;21234;-68
2022/12/14 03:25:43;;;;;;;15.40;10.27;;;;;;;;;;5096542;28;20416;-69
2022/12/14 03:28:25;;;;;;;16.43;10.67;;;;;;;;;;5094642;28;20929;-69
2022/12/14 03:30:56;;;;;;;16.57;10.97;;;;;;;;;;5075832;28;20426;-68
2022/12/14 03:33:23;;;;;;;16.03;10.53;;;;;;;;;;5075713;28;20468;-69
2022/12/14 03:35:54;;;;;;;15.87;11.10;;;;;;;;;;5075769;28;20927;-69
2022/12/14 03:38:26;;;;;;;13.93;9.73;;;;;;;;;;5076074;28;20411;-69
2022/12/14 03:40:55;;;;;;;20.30;10.17;;;;;;;;;;5075983;28;20424;-69
2022/12/14 03:43:31;;;;;;;17.13;9.77;;;;;;;;;;5075637;28;20501;-68
2022/12/14 03:46:03;;;;;;;16.07;10.07;;;;;;;;;;5094025;28;20443;-69
2022/12/14 03:48:41;;;;;;;16.53;9.57;;;;;;;;;;5075698;28;20400;-69
2022/12/14 03:51:21;;;;;;;16.43;9.77;;;;;;;;;;5093630;28;20757;-69
2022/12/14 03:53:47;;;;;;;14.07;9.73;;;;;;;;;;5093990;28;20428;-69
2022/12/14 03:56:26;;;;;;;19.37;10.70;;;;;;;;;;5094182;28;20434;-68
2022/12/14 03:58:52;;;;;;;13.27;9.47;;;;;;;;;;5075788;28;20908;-69
2022/12/14 04:01:24;;;;;;;16.03;10.90;;;;;;;;;;5075470;28;20426;-69
2022/12/14 04:03:53;;;;;;;14.73;9.30;;;;;;;;;;5093521;28;20305;-69
2022/12/14 04:06:23;;;;;;;13.43;8.80;;;;;;;;;;5075588;28;20514;-68
2022/12/14 04:09:10;;;;;;;15.17;10.00;;;;;;;;;;5075701;28;20426;-69
2022/12/14 04:20:03;;;;;;;13.90;8.63;;;;;;;;;;5097521;28;20387;-69
2022/12/14 04:22:32;;;;;;;15.33;8.73;;;;;;;;;;5097742;28;20435;-69
2022/12/14 04:27:51;;;;;;;12.57;8.47;;;;;;;;;;5116120;28;20452;-70
2022/12/14 04:30:17;;;;;;;14.17;8.87;;;;;;;;;;5112956;28;20444;-70
2022/12/14 04:32:46;;;;;;;13.83;8.83;;;;;;;;;;5103362;28;20437;-69
2022/12/14 04:35:18;;;;;;;16.47;8.60;;;;;;;;;;5100868;28;20399;-68
2022/12/14 04:37:46;;;;;;;15.40;8.17;;;;;;;;;;5099853;28;20412;-68
2022/12/14 04:40:15;;;;;;;15.47;8.83;;;;;;;;;;5100064;28;20399;-68
2022/12/14 04:42:47;;;;;;;15.27;8.93;;;;;;;;;;5100366;28;20419;-69
2022/12/14 04:45:16;;;;;;;11.17;8.67;;;;;;;;;;5099949;28;20430;-69
2022/12/14 04:47:45;;;;;;;13.03;8.60;;;;;;;;;;5081992;28;20894;-70
2022/12/14 04:50:19;;;;;;;13.70;7.77;;;;;;;;;;5098729;28;20457;-69
2022/12/14 04:52:47;;;;;;;14.60;8.67;;;;;;;;;;5097810;28;20427;-69
2022/12/14 04:55:20;;;;;;;14.37;8.60;;;;;;;;;;5097693;28;20473;-69
2022/12/14 04:57:50;;;;;;;14.43;8.03;;;;;;;;;;5077983;28;20411;-69
2022/12/14 05:00:16;;;;;;;13.20;9.07;;;;;;;;;;5096265;28;20845;-69
2022/12/14 05:02:51;;;;;;;15.17;8.70;;;;;;;;;;5100709;28;20510;-69
2022/12/14 05:05:23;;;;;;;17.93;9.50;;;;;;;;;;5079072;28;20454;-69
2022/12/14 05:07:58;;;;;;;12.00;8.23;;;;;;;;;;5078363;28;20407;-69
2022/12/14 05:10:39;;;;;;;12.33;8.10;;;;;;;;;;5096081;28;20428;-70
2022/12/14 05:13:12;;;;;;;11.53;7.90;;;;;;;;;;5096372;28;20775;-69
2022/12/14 05:15:43;;;;;;;16.23;8.90;;;;;;;;;;5096230;28;20416;-69
2022/12/14 05:18:09;;;;;;;12.30;8.70;;;;;;;;;;5078317;28;20476;-69
2022/12/14 05:20:35;;;;;;;16.43;8.93;;;;;;;;;;5077240;28;20889;-69
2022/12/14 05:23:01;;;;;;;14.03;8.73;;;;;;;;;;5095785;28;20425;-69
2022/12/14 05:25:27;;;;;;;14.70;9.13;;;;;;;;;;5096115;28;20415;-69
2022/12/14 05:27:53;;;;;;;17.07;8.93;;;;;;;;;;5077770;28;20923;-69
2022/12/14 05:30:19;;;;;;;18.03;9.37;;;;;;;;;;5096529;28;20173;-69
2022/12/14 05:32:45;;;;;;;12.20;8.30;;;;;;;;;;5078090;28;20219;-69
2022/12/14 05:35:12;;;;;;;13.23;8.80;;;;;;;;;;5077713;28;20419;-68
2022/12/14 05:37:38;;;;;;;12.77;8.60;;;;;;;;;;5077890;28;20412;-70
2022/12/14 05:40:05;;;;;;;15.37;9.03;;;;;;;;;;5077776;28;20491;-69
2022/12/14 05:42:31;;;;;;;18.00;9.00;;;;;;;;;;5078128;28;20438;-70
2022/12/14 05:44:57;;;;;;;15.57;8.73;;;;;;;;;;5077573;28;20467;-69
2022/12/14 05:47:24;;;;;;;11.67;7.87;;;;;;;;;;5080211;28;20964;-68
2022/12/14 05:49:50;;;;;;;13.60;8.03;;;;;;;;;;5097186;28;20903;-69
2022/12/14 05:52:16;;;;;;;15.87;8.10;;;;;;;;;;5085024;28;20415;-69
2022/12/14 05:54:42;;;;;;;18.43;8.03;;;;;;;;;;5108886;28;20409;-69
2022/12/14 05:57:08;;;;;;;16.90;8.73;;;;;;;;;;5109195;28;20409;-69
2022/12/14 05:59:34;;;;;;;16.97;9.30;;;;;;;;;;5110387;28;20179;-70
2022/12/14 06:02:00;;;;;;;14.00;8.60;;;;;;;;;;5092197;28;20181;-69
2022/12/14 06:04:26;;;;;;;16.40;9.10;;;;;;;;;;5104829;28;20694;-69
2022/12/14 06:06:52;;;;;;;16.03;8.00;;;;;;;;;;5095550;28;20435;-69
2022/12/14 06:09:18;;;;;;;14.60;8.10;;;;;;;;;;5095647;28;20532;-68
2022/12/14 06:11:45;;;;;;;15.37;8.07;;;;;;;;;;5095026;28;20278;-69
2022/12/14 06:14:12;;;;;;;14.53;8.83;;;;;;;;;;5076702;28;20816;-68
2022/12/14 06:16:42;;;;;;;11.20;7.73;;;;;;;;;;5094841;28;20409;-69
2022/12/14 06:19:08;;;;;;;19.50;8.70;;;;;;;;;;5076980;28;20532;-69
2022/12/14 06:21:35;;;;;;;16.53;8.43;;;;;;;;;;5094738;28;20504;-69
2022/12/14 06:24:01;;;;;;;12.70;8.60;;;;;;;;;;5076285;28;21028;-69
2022/12/14 06:26:28;;;;;;;12.57;9.43;;;;;;;;;;5076655;28;20419;-70
2022/12/14 06:28:54;;;;;;;16.73;8.60;;;;;;;;;;5094567;28;20910;-69
2022/12/14 06:31:24;;;;;;;20.13;9.10;;;;;;;;;;5094927;28;20762;-69
2022/12/14 06:33:52;;;;;;;14.63;9.00;;;;;;;;;;5109029;22;21002;-69
2022/12/14 06:36:21;;;;;;;14.80;8.70;;;;;;;;;;5101729;28;20387;-67
2022/12/14 06:38:47;;;;;;;15.50;9.07;;;;;;;;;;5103221;28;20925;-69
2022/12/14 06:41:13;;;;;;;20.33;9.03;;;;;;;;;;5102967;28;20410;-68
2022/12/14 06:43:39;;;;;;;15.17;8.53;;;;;;;;;;5102844;28;20270;-68
2022/12/14 06:46:08;;;;;;;14.07;8.60;;;;;;;;;;5095968;28;20403;-68
2022/12/14 06:48:35;;;;;;;17.13;9.10;;;;;;;;;;5096632;28;20213;-68
2022/12/14 06:51:01;;;;;;;15.43;8.60;;;;;;;;;;5095687;28;20410;-68
2022/12/14 06:53:27;;;;;;;18.20;9.20;;;;;;;;;;5094717;28;20446;-68
2022/12/14 06:55:53;;;;;;;12.80;8.27;;;;;;;;;;5096411;28;20410;-68
2022/12/14 06:58:19;;;;;;;21.80;9.00;;;;;;;;;;5095935;28;20210;-68
2022/12/14 07:00:45;;;;;;;15.50;8.93;;;;;;;;;;5095122;28;20770;-69
2022/12/14 07:03:11;;;;;;;15.40;9.83;;;;;;;;;;5095778;28;20615;-69
2022/12/14 07:05:37;;;;;;;17.77;8.80;;;;;;;;;;5094528;28;20413;-68
2022/12/14 07:08:03;;;;;;;15.77;9.10;;;;;;;;;;5094503;28;20644;-67
2022/12/14 07:10:29;;;;;;;17.60;9.70;;;;;;;;;;5094604;28;20229;-67
2022/12/14 07:12:55;;;;;;;22.47;9.80;;;;;;;;;;5095742;28;20803;-67
2022/12/14 07:15:21;;;;;;;13.77;8.63;;;;;;;;;;5094280;28;20197;-68
2022/12/14 07:17:47;;;;;;;16.03;8.37;;;;;;;;;;5095378;28;20181;-68
2022/12/14 07:20:13;;;;;;;15.23;8.03;;;;;;;;;;5093954;28;20264;-68
2022/12/14 07:22:39;;;;;;;19.73;8.07;;;;;;;;;;5093971;28;20185;-67
2022/12/14 07:25:05;;;;;;;15.53;8.33;;;;;;;;;;5093588;28;20266;-66
2022/12/14 07:27:31;;;;;;;18.83;9.07;;;;;;;;;;5095476;28;20413;-70
2022/12/14 07:29:57;;;;;;;14.17;9.43;;;;;;;;;;5095090;28;20476;-70
2022/12/14 07:32:23;;;;;;;22.60;8.47;;;;;;;;;;5096199;28;20414;-71
2022/12/14 07:34:49;;;;;;;18.90;8.90;;;;;;;;;;5094522;28;20239;-71
2022/12/14 07:37:15;;;;;;;20.33;9.30;;;;;;;;;;5094826;28;20407;-71
2022/12/14 07:39:41;;;;;;;15.03;8.07;;;;;;;;;;5096211;28;20192;-71
2022/12/14 07:42:07;;;;;;;24.47;9.13;;;;;;;;;;5094153;28;20285;-71
2022/12/14 07:44:33;;;;;;;15.33;7.63;;;;;;;;;;5099453;28;20205;-70
2022/12/14 07:46:59;;;;;;;21.80;8.50;;;;;;;;;;5100764;28;20406;-71
2022/12/14 07:49:25;;;;;;;21.57;8.70;;;;;;;;;;5099969;28;20407;-70
2022/12/14 07:51:51;;;;;;;19.23;9.40;;;;;;;;;;5104068;28;20205;-70
2022/12/14 07:54:18;;;;;;;23.60;9.03;;;;;;;;;;5099826;28;20236;-70
2022/12/14 07:56:44;;;;;;;21.67;9.93;;;;;;;;;;5097802;28;20418;-71
2022/12/14 07:59:13;;;;;;;19.13;9.37;;;;;;;;;;5098339;28;20429;-71
2022/12/14 08:01:41;;;;;;;24.73;9.10;;;;;;;;;;5098653;28;20426;-71
2022/12/14 08:04:11;;;;;;;16.30;9.90;;;;;;;;;;5097340;28;20896;-70
2022/12/14 08:06:38;;;;;;;19.60;9.60;;;;;;;;;;5099022;28;20407;-71
2022/12/14 08:09:05;;;;;;;17.80;8.40;;;;;;;;;;5097390;28;20498;-70
2022/12/14 08:11:31;;;;;;;25.60;9.73;;;;;;;;;;5097689;28;20419;-71
2022/12/14 08:13:58;;;;;;;19.20;9.07;;;;;;;;;;5097625;28;20439;-71
2022/12/14 08:16:24;;;;;;;18.87;8.43;;;;;;;;;;5099048;28;20549;-71
2022/12/14 08:18:52;;;;;;;20.50;9.57;;;;;;;;;;5098149;28;20926;-70
2022/12/14 08:21:20;;;;;;;20.77;8.83;;;;;;;;;;5099272;28;20443;-71
2022/12/14 08:23:46;;;;;;;14.70;7.83;;;;;;;;;;5098994;28;20493;-71
2022/12/14 08:26:12;;;;;;;13.43;8.33;;;;;;;;;;5098669;28;20433;-71
2022/12/14 08:28:38;;;;;;;14.70;8.20;;;;;;;;;;5099855;28;20407;-70
2022/12/14 08:31:05;;;;;;;18.83;9.03;;;;;;;;;;5099306;28;20944;-71
2022/12/14 08:33:32;;;;;;;20.67;8.37;;;;;;;;;;5097474;28;20699;-71
2022/12/14 08:36:03;;;;;;;16.77;8.93;;;;;;;;;;5098319;28;20775;-72
2022/12/14 08:38:29;;;;;;;18.23;9.33;;;;;;;;;;5099741;28;20387;-71
2022/12/14 08:40:55;;;;;;;16.40;8.70;;;;;;;;;;5098402;28;20553;-71
2022/12/14 08:43:21;;;;;;;13.90;8.80;;;;;;;;;;5099483;28;20239;-71
2022/12/14 08:45:47;;;;;;;14.60;8.93;;;;;;;;;;5098528;28;20190;-71
2022/12/14 08:48:13;;;;;;;18.33;9.07;;;;;;;;;;5097663;28;20227;-71
2022/12/14 08:50:39;;;;;;;13.97;9.63;;;;;;;;;;5099194;28;20173;-71
2022/12/14 08:53:05;;;;;;;17.57;8.40;;;;;;;;;;5100383;28;20239;-71
2022/12/14 08:55:31;;;;;;;20.67;10.50;;;;;;;;;;5099331;28;20173;-70
2022/12/14 08:57:57;;;;;;;17.17;10.27;;;;;;;;;;5100173;28;20177;-72
2022/12/14 09:00:23;;;;;;;31.63;9.50;;;;;;;;;;5098175;28;20177;-71
2022/12/14 09:02:50;;;;;;;18.87;9.10;;;;;;;;;;5099092;28;20782;-71
2022/12/14 09:05:16;;;;;;;18.63;9.17;;;;;;;;;;5100482;28;20209;-71
2022/12/14 09:07:42;;;;;;;18.60;9.60;;;;;;;;;;5099164;28;20399;-71
2022/12/14 09:10:08;;;;;;;16.83;9.97;;;;;;;;;;5096945;28;20184;-71
2022/12/14 09:12:35;;;;;;;25.10;9.20;;;;;;;;;;5097487;28;20180;-72
2022/12/14 09:15:01;;;;;;;20.13;10.10;;;;;;;;;;5098268;28;20807;-71
2022/12/14 09:17:27;;;;;;;19.70;10.17;;;;;;;;;;5098070;28;20445;-71
2022/12/14 09:19:52;;;;;;;20.60;10.27;;;;;;;;;;5098012;28;20181;-70
2022/12/14 09:22:18;;;;;;;19.23;9.43;;;;;;;;;;5097768;28;20423;-72
2022/12/14 09:24:44;;;;;;;21.73;10.63;;;;;;;;;;5097606;28;20684;-72
2022/12/14 09:27:10;;;;;;;18.93;10.17;;;;;;;;;;5097273;28;20181;-71
2022/12/14 09:29:36;;;;;;;24.80;10.33;;;;;;;;;;5097256;28;20260;-71
2022/12/14 09:32:02;;;;;;;22.70;11.30;;;;;;;;;;5097191;28;20174;-71
2022/12/14 09:34:28;;;;;;;23.37;10.97;;;;;;;;;;5096557;28;20726;-71
2022/12/14 09:36:54;;;;;;;24.40;11.70;;;;;;;;;;5096672;28;20422;-71
2022/12/14 09:39:20;;;;;;;25.57;11.53;;;;;;;;;;5098356;28;20502;-71
2022/12/14 09:41:52;;;;;;;17.53;11.23;;;;;;;;;;5098569;28;20185;-70
2022/12/14 09:44:23;;;;;;;23.13;11.20;;;;;;;;;;5096645;28;20626;-71
2022/12/14 09:47:21;;;;;;;24.40;11.07;;;;;;;;;;5098036;28;20404;-72
2022/12/14 09:49:55;;;;;;;22.07;10.57;;;;;;;;;;5074152;28;20415;-72
2022/12/14 09:52:29;;;;;;;18.80;10.87;;;;;;;;;;5098181;28;20564;-70
2022/12/14 09:54:56;;;;;;;19.70;11.07;;;;;;;;;;5098403;28;20434;-69
2022/12/14 09:57:32;;;;;;;24.97;11.40;;;;;;;;;;5097904;28;20498;-71
2022/12/14 09:59:58;;;;;;;17.80;11.30;;;;;;;;;;5099181;28;20411;-72
2022/12/14 10:02:40;;;;;;;26.50;11.37;;;;;;;;;;5097904;28;20426;-71
2022/12/14 10:05:18;;;;;;;32.43;11.30;;;;;;;;;;5098727;28;20471;-70
2022/12/14 10:07:47;;;;;;;22.73;11.20;;;;;;;;;;5098656;28;20388;-71
2022/12/14 10:10:23;;;;;;;18.13;10.57;;;;;;;;;;5101796;28;20458;-71
2022/12/14 10:13:08;;;;;;;24.03;12.13;;;;;;;;;;5100433;28;20422;-71
2022/12/14 10:15:48;;;;;;;23.70;13.37;;;;;;;;;;5098034;28;20407;-70
2022/12/14 10:18:23;;;;;;;23.77;14.03;;;;;;;;;;5098292;28;20449;-71
2022/12/14 10:20:52;;;;;;;22.07;11.63;;;;;;;;;;5096820;28;20426;-71
2022/12/14 10:23:20;;;;;;;27.23;11.87;;;;;;;;;;5097727;28;20512;-71
2022/12/14 10:25:48;;;;;;;24.57;11.83;;;;;;;;;;5096336;28;20415;-70
2022/12/14 10:28:17;;;;;;;30.70;17.63;;;;;;;;;;5097279;28;20408;-71
2022/12/14 10:30:43;;;;;;;25.40;11.53;;;;;;;;;;5097326;28;20415;-71
2022/12/14 10:33:28;;;;;;;22.97;10.57;;;;;;;;;;5096214;28;20427;-71
2022/12/14 10:35:56;;;;;;;27.00;12.83;;;;;;;;;;5097082;28;20387;-71
2022/12/14 10:38:40;;;;;;;25.57;13.03;;;;;;;;;;5096876;28;20407;-70
2022/12/14 10:41:12;;;;;;;28.30;14.87;;;;;;;;;;5096040;28;20424;-72
2022/12/14 10:43:38;;;;;;;23.60;13.10;;;;;;;;;;5095680;28;20477;-72
2022/12/14 10:46:13;;;;;;;25.97;13.13;;;;;;;;;;5095165;28;20415;-73
2022/12/14 10:48:50;;;;;;;26.47;12.67;;;;;;;;;;5096965;28;20646;-71
2022/12/14 10:51:36;;;;;;;31.27;12.63;;;;;;;;;;5095721;28;20414;-73
2022/12/14 10:54:05;;;;;;;27.13;13.07;;;;;;;;;;5095707;28;20435;-72
2022/12/14 10:56:32;;;;;;;22.13;13.60;;;;;;;;;;5095053;28;20837;-73
2022/12/14 10:59:15;;;;;;;22.33;12.47;;;;;;;;;;5095022;28;20411;-72
2022/12/14 11:01:42;;;;;;;20.00;12.10;;;;;;;;;;5094796;28;20472;-72
2022/12/14 11:04:28;;;;;;;26.60;13.40;;;;;;;;;;5095745;28;20543;-71
2022/12/14 11:06:54;;;;;;;28.17;13.13;;;;;;;;;;5096634;28;20491;-72
2022/12/14 11:09:22;;;;;;;23.10;11.23;;;;;;;;;;5095364;28;20411;-71
2022/12/14 11:11:48;;;;;;;22.97;11.77;;;;;;;;;;5094900;28;20399;-72
2022/12/14 11:14:18;;;;;;;27.67;12.20;;;;;;;;;;5093745;28;20431;-71
2022/12/14 11:16:43;;;;;;;61.73;26.93;;;;;;;;;;5095573;28;20453;-72
2022/12/14 11:19:21;;;;;;;35.93;13.77;;;;;;;;;;5095807;28;20511;-71
2022/12/14 11:21:47;;;;;;;37.23;17.03;;;;;;;;;;5098061;28;20188;-70
2022/12/14 11:24:27;;;;;;;26.87;12.47;;;;;;;;;;5097280;28;20470;-71
2022/12/14 11:26:54;;;;;;;33.37;18.47;;;;;;;;;;5099183;28;20407;-71
2022/12/14 11:29:39;;;;;;;54.33;25.30;;;;;;;;;;5099774;28;20407;-72
2022/12/14 11:32:05;;;;;;;28.00;12.23;;;;;;;;;;5098749;28;20442;-72
2022/12/14 11:34:37;;;;;;;29.80;12.30;;;;;;;;;;5098715;28;20446;-71
2022/12/14 11:37:21;;;;;;;21.43;12.07;;;;;;;;;;5097706;28;20419;-71
2022/12/14 11:39:52;;;;;;;25.93;11.63;;;;;;;;;;5098985;28;20407;-72
2022/12/14 11:42:19;;;;;;;64.70;35.27;;;;;;;;;;5100023;28;20426;-73
2022/12/14 11:44:46;;;;;;;25.07;13.80;;;;;;;;;;5101577;28;20477;-73
2022/12/14 11:47:14;;;;;;;34.53;12.77;;;;;;;;;;5099169;28;20422;-73
2022/12/14 11:49:40;;;;;;;27.87;13.20;;;;;;;;;;5102176;28;20813;-71
2022/12/14 11:52:23;;;;;;;31.90;14.30;;;;;;;;;;5101340;28;20832;-73
2022/12/14 11:54:52;;;;;;;24.07;12.90;;;;;;;;;;5100730;28;20435;-70
2022/12/14 11:57:21;;;;;;;34.83;12.57;;;;;;;;;;5099747;28;20418;-71
2022/12/14 11:59:50;;;;;;;22.63;11.67;;;;;;;;;;5101783;28;20892;-72
2022/12/14 12:02:35;;;;;;;31.27;12.87;;;;;;;;;;5100452;28;20506;-72
2022/12/14 12:05:07;;;;;;;28.07;12.87;;;;;;;;;;5098891;28;20498;-72
2022/12/14 12:07:34;;;;;;;27.40;11.63;;;;;;;;;;5100605;28;20431;-71
2022/12/14 12:10:01;;;;;;;21.93;11.60;;;;;;;;;;5100865;28;20486;-69
2022/12/14 12:12:27;;;;;;;31.63;13.10;;;;;;;;;;5098676;28;20770;-71
2022/12/14 12:14:54;;;;;;;40.90;12.67;;;;;;;;;;5100099;28;20574;-71
2022/12/14 12:17:36;;;;;;;27.60;12.27;;;;;;;;;;5099404;28;20203;-70
2022/12/14 12:20:02;;;;;;;30.43;11.50;;;;;;;;;;5099375;28;20411;-72
2022/12/14 12:22:30;;;;;;;23.57;10.57;;;;;;;;;;5100752;28;20415;-72
2022/12/14 12:24:58;;;;;;;22.33;11.40;;;;;;;;;;5100464;28;20465;-72
2022/12/14 12:27:24;;;;;;;19.63;11.37;;;;;;;;;;5098904;28;20407;-75
2022/12/14 12:29:53;;;;;;;22.53;11.43;;;;;;;;;;5097946;28;20418;-71
2022/12/14 12:32:22;;;;;;;17.23;9.50;;;;;;;;;;5098603;28;20406;-72
2022/12/14 12:35:02;;;;;;;16.90;9.77;;;;;;;;;;5099899;28;20498;-72
2022/12/14 12:37:40;;;;;;;21.37;9.93;;;;;;;;;;5098338;28;20407;-71
2022/12/14 12:40:26;;;;;;;15.57;9.60;;;;;;;;;;5098512;28;20419;-72
2022/12/14 12:42:56;;;;;;;18.13;9.77;;;;;;;;;;5099638;28;20513;-72
2022/12/14 12:45:25;;;;;;;15.53;9.83;;;;;;;;;;5099648;28;20473;-71
2022/12/14 12:48:00;;;;;;;21.93;11.03;;;;;;;;;;5099716;28;20512;-69
2022/12/14 12:50:27;;;;;;;17.17;10.07;;;;;;;;;;5099415;28;20442;-72
2022/12/14 12:52:56;;;;;;;16.17;10.13;;;;;;;;;;5098310;28;20451;-72
2022/12/14 12:55:23;;;;;;;16.77;9.90;;;;;;;;;;5099807;28;20561;-70
2022/12/14 12:57:52;;;;;;;17.10;9.90;;;;;;;;;;5098314;28;20427;-71
2022/12/14 13:00:19;;;;;;;19.33;9.67;;;;;;;;;;5098195;28;20914;-71
2022/12/14 13:02:54;;;;;;;14.90;10.07;;;;;;;;;;5100126;28;20756;-71
2022/12/14 13:05:22;;;;;;;16.80;10.43;;;;;;;;;;5098608;28;20906;-71
2022/12/14 13:07:54;;;;;;;19.60;9.97;;;;;;;;;;5100001;28;20403;-71
2022/12/14 13:10:21;;;;;;;20.00;10.23;;;;;;;;;;5097966;28;20912;-71
2022/12/14 13:12:58;;;;;;;18.27;10.47;;;;;;;;;;5099091;28;20407;-70
2022/12/14 13:15:29;;;;;;;16.13;10.53;;;;;;;;;;5098277;28;20823;-70
2022/12/14 13:18:04;;;;;;;18.53;10.80;;;;;;;;;;5126579;22;20415;-69
2022/12/14 13:20:31;;;;;;;22.90;15.03;;;;;;;;;;5038459;28;20441;-71
2022/12/14 13:22:58;;;;;;;16.13;10.97;;;;;;;;;;5055908;28;20412;-71
2022/12/14 13:25:26;;;;;;;20.57;9.63;;;;;;;;;;5037813;28;20810;-71
2022/12/14 13:27:58;;;;;;;21.67;10.20;;;;;;;;;;5055898;28;20496;-70
2022/12/14 13:30:32;;;;;;;15.07;9.93;;;;;;;;;;5055712;28;20837;-71
2022/12/14 13:32:58;;;;;;;16.57;9.97;;;;;;;;;;5037797;28;20942;-72
2022/12/14 13:36:02;;;;;;;16.70;10.03;;;;;;;;;;5037644;28;20457;-71
2022/12/14 13:38:28;;;;;;;16.63;9.73;;;;;;;;;;4994293;28;20222;-71
2022/12/14 13:41:13;;;;;;;13.77;9.17;;;;;;;;;;4994019;28;20423;-71
2022/12/14 13:43:55;;;;;;;14.03;10.10;;;;;;;;;;5030767;28;20223;-71
2022/12/14 13:46:23;;;;;;;16.00;10.03;;;;;;;;;;5055451;28;20443;-70
2022/12/14 13:48:52;;;;;;;18.10;10.67;;;;;;;;;;5037664;28;20467;-71
2022/12/14 13:51:27;;;;;;;17.23;10.43;;;;;;;;;;5037214;28;20421;-71
2022/12/14 13:53:57;;;;;;;15.60;10.40;;;;;;;;;;5037431;28;20499;-71
2022/12/14 13:56:25;;;;;;;22.27;10.73;;;;;;;;;;5055578;28;20394;-71
2022/12/14 13:58:51;;;;;;;17.63;11.13;;;;;;;;;;5037788;28;20441;-71
2022/12/14 14:01:20;;;;;;;19.53;11.37;;;;;;;;;;5037138;28;20417;-71
2022/12/14 14:03:48;;;;;;;18.57;11.47;;;;;;;;;;5037314;28;20461;-71
2022/12/14 14:06:18;;;;;;;18.30;11.13;;;;;;;;;;5037057;28;20500;-71
2022/12/14 14:08:45;;;;;;;19.47;11.83;;;;;;;;;;5054667;28;20432;-70
2022/12/14 14:11:17;;;;;;;25.67;12.00;;;;;;;;;;5054533;28;20409;-70
2022/12/14 14:13:47;;;;;;;25.17;12.70;;;;;;;;;;5054988;28;20405;-70
2022/12/14 14:16:28;;;;;;;22.70;13.77;;;;;;;;;;5037438;28;20436;-70
2022/12/14 14:18:56;;;;;;;20.13;13.20;;;;;;;;;;5054647;28;20456;-70
2022/12/14 14:21:29;;;;;;;21.67;12.87;;;;;;;;;;5036884;28;20498;-71
2022/12/14 14:23:59;;;;;;;19.30;13.37;;;;;;;;;;5037012;28;20508;-70
2022/12/14 14:26:26;;;;;;;21.40;13.07;;;;;;;;;;5054979;28;20754;-71
2022/12/14 14:29:08;;;;;;;20.47;13.30;;;;;;;;;;5036761;28;20440;-71
2022/12/14 14:31:53;;;;;;;26.23;14.87;;;;;;;;;;5036401;28;20416;-71
2022/12/14 14:34:28;;;;;;;18.03;11.73;;;;;;;;;;5054099;28;20424;-69
2022/12/14 14:36:54;;;;;;;19.30;12.03;;;;;;;;;;5054266;28;20435;-69
2022/12/14 14:39:29;;;;;;;17.90;11.57;;;;;;;;;;5054687;28;20933;-69
2022/12/14 14:41:56;;;;;;;25.07;15.33;;;;;;;;;;5042587;28;20182;-71
2022/12/14 14:44:33;;;;;;;25.20;14.10;;;;;;;;;;5058883;28;20464;-69
2022/12/14 14:46:59;;;;;;;23.17;13.63;;;;;;;;;;5057145;28;20388;-70